Terminal Aerodrome Forecast
Issued by NWS Brownsville, TX

Home | Current Version | Previous Version | Text Only | Print | Product List | Glossary On
Versions: 1 2 3 4 5 6 7 8 9 10 11 12
591
FTUS44 KBRO 260533
TAFHRL
TAF
KHRL 260533Z 2606/2706 14007KT P6SM FEW020 BKN250
     FM261500 17014KT P6SM VCSH SCT020 BKN030
     FM261800 15017G23KT P6SM VCSH SCT035 BKN250
     FM270100 14013KT P6SM FEW020 SCT250=

USA.gov is the U.S. government's official web portal to all federal, state and local government web resources and services.